createdAt,value
2023-07-18T00:02:21.991Z,11.43
2023-07-18T00:07:30.769Z,10.38
2023-07-18T00:12:36.029Z,14.75
2023-07-18T00:17:42.394Z,13.88
2023-07-18T00:22:51.221Z,11.00
2023-07-18T00:27:56.614Z,13.38
2023-07-18T00:33:01.783Z,14.35
2023-07-18T00:38:09.533Z,12.95
2023-07-18T00:43:18.416Z,16.13
2023-07-18T00:48:23.982Z,14.70
2023-07-18T00:53:32.182Z,14.18
2023-07-18T00:58:37.419Z,16.63
2023-07-18T01:03:45.627Z,13.63
2023-07-18T01:08:54.186Z,22.15
2023-07-18T01:13:59.313Z,15.20
2023-07-18T01:19:04.557Z,14.23
2023-07-18T01:24:12.502Z,17.75
2023-07-18T01:29:17.650Z,13.05
2023-07-18T01:34:22.791Z,12.48
2023-07-18T01:39:30.617Z,13.68
2023-07-18T01:44:36.226Z,16.38
2023-07-18T01:49:41.444Z,15.90
2023-07-18T01:54:49.186Z,11.57
2023-07-18T01:59:54.312Z,18.55
2023-07-18T02:05:00.008Z,15.30
2023-07-18T02:10:08.895Z,14.38
2023-07-18T02:15:16.828Z,16.92
2023-07-18T02:20:22.142Z,15.57
2023-07-18T02:25:30.020Z,17.80
2023-07-18T02:30:35.415Z,16.80
2023-07-18T02:35:40.542Z,17.27
2023-07-18T02:40:49.219Z,18.92
2023-07-18T02:45:54.332Z,17.42
2023-07-18T02:50:59.439Z,16.23
2023-07-18T02:56:07.609Z,17.17
2023-07-18T03:01:13.378Z,16.25
2023-07-18T03:06:18.762Z,14.77
2023-07-18T03:11:27.186Z,17.60
2023-07-18T03:16:33.035Z,15.80
2023-07-18T03:21:38.246Z,18.30
2023-07-18T03:26:46.033Z,19.40
2023-07-18T03:31:51.203Z,15.10
2023-07-18T03:36:56.373Z,17.80
2023-07-18T03:42:04.185Z,17.17
2023-07-18T03:47:20.139Z,21.65
2023-07-18T03:52:26.191Z,17.27
2023-07-18T03:57:33.921Z,19.45
2023-07-18T04:02:39.154Z,20.88
2023-07-18T04:07:45.577Z,13.18
2023-07-18T04:12:53.363Z,15.02
2023-07-18T04:17:58.618Z,16.85
2023-07-18T04:23:03.866Z,17.20
2023-07-18T04:28:11.641Z,20.17
2023-07-18T04:33:16.900Z,16.23
2023-07-18T04:38:22.128Z,18.83
2023-07-18T04:43:30.094Z,16.27
2023-07-18T04:48:35.366Z,16.92
2023-07-18T04:53:40.467Z,13.52
2023-07-18T04:58:48.209Z,23.98
2023-07-18T05:03:57.882Z,14.95
2023-07-18T05:09:04.896Z,16.98
2023-07-18T05:14:12.729Z,18.05
2023-07-18T05:19:17.945Z,18.00
2023-07-18T05:24:23.344Z,16.25
2023-07-18T05:29:31.049Z,17.48
2023-07-18T05:34:37.042Z,14.77
2023-07-18T05:39:42.399Z,15.82
2023-07-18T05:44:50.251Z,13.50
2023-07-18T05:49:55.572Z,15.63
2023-07-18T05:55:00.699Z,10.15
2023-07-18T06:00:11.681Z,12.48
2023-07-18T06:05:16.791Z,9.95
2023-07-18T06:10:22.179Z,9.82
2023-07-18T06:15:30.226Z,11.68
2023-07-18T06:20:35.706Z,9.88
2023-07-18T06:25:41.020Z,10.68
2023-07-18T06:30:49.961Z,11.50
2023-07-18T06:35:56.154Z,8.73
2023-07-18T06:41:01.354Z,11.63
2023-07-18T06:46:09.212Z,9.18
2023-07-18T06:51:16.215Z,9.75
2023-07-18T06:56:21.579Z,7.90
2023-07-18T07:01:29.718Z,8.77
2023-07-18T07:06:35.567Z,8.00
2023-07-18T07:11:40.953Z,8.82
2023-07-18T07:16:48.693Z,12.00
2023-07-18T07:21:56.100Z,8.20
2023-07-18T07:27:01.287Z,8.05
2023-07-18T07:32:09.823Z,8.75
2023-07-18T07:37:15.034Z,10.23
2023-07-18T07:42:20.162Z,9.68
2023-07-18T07:47:27.882Z,10.35
2023-07-18T07:52:33.268Z,9.63
2023-07-18T07:57:38.368Z,8.15
2023-07-18T08:02:46.460Z,14.65
2023-07-18T08:07:52.187Z,9.65
2023-07-18T08:12:57.443Z,7.75
2023-07-18T08:18:05.252Z,7.00
2023-07-18T08:23:10.444Z,8.13
2023-07-18T08:28:15.640Z,10.13
2023-07-18T08:33:24.988Z,6.95
2023-07-18T08:38:30.178Z,7.20
2023-07-18T08:43:35.853Z,7.20
2023-07-18T08:48:44.079Z,6.93
2023-07-18T08:53:49.384Z,7.22
2023-07-18T08:58:54.731Z,8.40
2023-07-18T09:04:02.679Z,7.07
2023-07-18T09:09:18.288Z,7.78
2023-07-18T09:14:27.271Z,8.13
2023-07-18T09:19:43.388Z,9.52
2023-07-18T09:24:49.985Z,7.55
2023-07-18T09:29:56.206Z,8.43
2023-07-18T09:35:04.774Z,8.70
2023-07-18T09:40:11.384Z,7.95
2023-07-18T09:45:17.104Z,7.78
2023-07-18T09:50:25.040Z,8.52
2023-07-18T09:55:32.027Z,8.00
2023-07-18T10:00:37.222Z,7.00
2023-07-18T10:05:45.498Z,5.47
2023-07-18T10:11:04.333Z,7.68
2023-07-18T10:16:24.020Z,7.75
2023-07-18T10:21:36.443Z,7.85
2023-07-18T10:26:41.558Z,6.30
2023-07-18T10:31:46.762Z,5.78
2023-07-18T10:37:01.355Z,5.93
2023-07-18T10:42:10.317Z,6.45
2023-07-18T10:47:16.866Z,7.80
2023-07-18T10:52:25.600Z,5.78
2023-07-18T10:57:31.555Z,9.00
2023-07-18T11:02:40.488Z,7.38
2023-07-18T11:07:49.983Z,5.85
2023-07-18T11:12:56.713Z,7.57
2023-07-18T11:18:01.982Z,8.73
2023-07-18T11:23:10.433Z,6.15
2023-07-18T11:28:17.166Z,6.82
2023-07-18T11:33:24.575Z,8.07
2023-07-18T11:38:36.705Z,6.50
2023-07-18T11:43:42.725Z,7.57
2023-07-18T11:48:50.237Z,6.20
2023-07-18T11:53:59.158Z,6.03
2023-07-18T11:59:04.442Z,6.80
2023-07-18T12:04:15.865Z,5.72
2023-07-18T12:09:23.753Z,6.93
2023-07-18T12:14:29.138Z,8.25
2023-07-18T12:24:42.211Z,10.10
2023-07-18T12:29:47.476Z,5.90
2023-07-18T12:40:00.280Z,6.18
2023-07-18T12:45:05.572Z,6.35
2023-07-18T12:55:20.164Z,8.68
2023-07-18T13:00:25.454Z,7.57
2023-07-18T13:05:31.673Z,6.32
2023-07-18T13:10:40.162Z,4.82
2023-07-18T13:15:46.103Z,4.97
2023-07-18T13:20:51.325Z,5.50
2023-07-18T13:25:59.213Z,6.22
2023-07-18T13:31:04.802Z,6.07
2023-07-18T13:36:10.142Z,8.25
2023-07-18T13:46:23.549Z,6.10
2023-07-18T13:51:30.915Z,5.95
2023-07-18T13:56:38.627Z,5.72
2023-07-18T14:01:43.893Z,10.45
2023-07-18T14:11:56.588Z,5.18
2023-07-18T14:17:01.787Z,7.10
2023-07-18T14:22:07.624Z,6.57
2023-07-18T14:27:16.957Z,6.32
2023-07-18T14:32:22.244Z,5.35
2023-07-18T14:37:27.480Z,8.05
2023-07-18T14:42:35.244Z,8.40
2023-07-18T14:47:40.467Z,9.57
2023-07-18T14:52:45.609Z,10.13
2023-07-18T14:57:53.472Z,8.32
2023-07-18T15:02:58.692Z,6.53
2023-07-18T15:08:05.172Z,5.13
2023-07-18T15:13:12.994Z,7.32
2023-07-18T15:18:18.411Z,5.00
2023-07-18T15:23:23.576Z,4.68
2023-07-18T15:28:32.171Z,6.13
2023-07-18T15:33:38.035Z,6.63
2023-07-18T15:38:46.175Z,4.60
2023-07-18T15:43:54.668Z,4.57
2023-07-18T15:48:59.843Z,5.13
2023-07-18T15:54:05.779Z,7.95
2023-07-18T15:59:13.657Z,7.57
2023-07-18T16:04:18.921Z,4.53
2023-07-18T16:09:29.368Z,5.45
2023-07-18T16:14:37.456Z,8.35
2023-07-18T16:19:45.406Z,10.63
2023-07-18T16:24:50.903Z,7.97
2023-07-18T16:29:58.669Z,9.02
2023-07-18T16:35:03.935Z,9.13
2023-07-18T16:40:11.562Z,10.25
2023-07-18T16:45:19.819Z,8.52
2023-07-18T16:50:25.187Z,9.00
2023-07-18T16:55:30.760Z,5.50
2023-07-18T17:00:39.782Z,5.43
2023-07-18T17:05:44.975Z,8.95
2023-07-18T17:10:50.211Z,10.15
2023-07-18T17:15:58.118Z,6.20
2023-07-18T17:21:03.733Z,6.60
2023-07-18T17:26:10.443Z,5.75
2023-07-18T17:31:18.263Z,7.68
2023-07-18T17:36:23.591Z,10.18
2023-07-18T17:41:28.816Z,7.28
2023-07-18T17:46:36.864Z,9.38
2023-07-18T17:51:42.254Z,5.82
2023-07-18T17:56:47.586Z,7.82
2023-07-18T18:01:55.845Z,12.85
2023-07-18T18:07:01.005Z,12.35
2023-07-18T18:12:06.324Z,8.38
2023-07-18T18:17:13.983Z,9.23
2023-07-18T18:22:19.164Z,7.93
2023-07-18T18:27:24.405Z,7.63
2023-07-18T18:32:32.345Z,12.15
2023-07-18T18:37:37.519Z,9.75
2023-07-18T18:42:42.768Z,10.60
2023-07-18T18:47:50.637Z,8.43
2023-07-18T18:52:55.816Z,13.30
2023-07-18T18:58:01.306Z,10.60
2023-07-18T19:03:09.375Z,11.65
2023-07-18T19:08:14.652Z,9.48
2023-07-18T19:13:21.101Z,10.57
2023-07-18T19:18:28.851Z,24.45
2023-07-18T19:23:34.043Z,25.08
2023-07-18T19:28:39.278Z,20.13
2023-07-18T19:33:47.111Z,15.30
2023-07-18T19:38:55.183Z,12.82
2023-07-18T19:44:00.484Z,13.43
2023-07-18T19:49:08.318Z,15.85
2023-07-18T19:54:13.444Z,17.08
2023-07-18T19:59:18.667Z,15.15
2023-07-18T20:04:26.712Z,16.92
2023-07-18T20:09:32.032Z,13.85
2023-07-18T20:14:37.201Z,18.08
2023-07-18T20:19:45.920Z,17.58
2023-07-18T20:24:51.136Z,11.43
2023-07-18T20:29:56.470Z,15.38
2023-07-18T20:35:04.226Z,13.45
2023-07-18T20:40:11.115Z,13.38
2023-07-18T20:45:16.798Z,13.88
2023-07-18T20:50:25.007Z,13.00
2023-07-18T20:55:30.178Z,12.82
2023-07-18T21:00:35.371Z,12.13
2023-07-18T21:05:43.266Z,11.20
2023-07-18T21:10:48.662Z,12.20
2023-07-18T21:15:53.965Z,14.50
2023-07-18T21:21:01.934Z,11.70
2023-07-18T21:26:07.249Z,11.80
2023-07-18T21:31:12.471Z,7.97
2023-07-18T21:36:20.887Z,10.82
2023-07-18T21:41:26.235Z,6.03
2023-07-18T21:46:31.687Z,8.77
2023-07-18T21:51:41.520Z,9.25
2023-07-18T21:56:46.743Z,9.93
2023-07-18T22:01:51.801Z,9.95
2023-07-18T22:06:59.531Z,13.77
2023-07-18T22:12:04.773Z,8.35
2023-07-18T22:17:10.129Z,9.52
2023-07-18T22:22:17.862Z,8.10
2023-07-18T22:27:22.945Z,9.65
2023-07-18T22:32:30.591Z,11.27
2023-07-18T22:37:40.179Z,8.38
2023-07-18T22:42:45.266Z,15.75
2023-07-18T22:47:50.477Z,10.02
2023-07-18T22:53:00.432Z,10.77
2023-07-18T22:58:06.506Z,18.42
2023-07-18T23:03:12.491Z,9.40
2023-07-18T23:08:20.214Z,10.15
2023-07-18T23:13:25.301Z,11.98
2023-07-18T23:18:30.490Z,12.15
2023-07-18T23:23:38.291Z,8.90
2023-07-18T23:28:43.502Z,13.75
2023-07-18T23:33:48.727Z,14.60
2023-07-18T23:38:56.466Z,10.65
2023-07-18T23:44:01.628Z,9.25
2023-07-18T23:49:07.046Z,11.07
2023-07-18T23:54:14.842Z,11.00
2023-07-18T23:59:20.288Z,14.05
